sensor_id;sensor_type;location;lat;lon;timestamp;P1;durP1;ratioP1;P2;durP2;ratioP2
39370;SDS011;25099;51.946;4.838;2023-05-15T00:00:01;25.73;;;22.48;;
39370;SDS011;25099;51.946;4.838;2023-05-15T00:02:28;29.25;;;20.77;;
39370;SDS011;25099;51.946;4.838;2023-05-15T00:04:53;24.38;;;21.45;;
39370;SDS011;25099;51.946;4.838;2023-05-15T00:07:19;29.30;;;22.75;;
39370;SDS011;25099;51.946;4.838;2023-05-15T00:09:45;27.58;;;23.10;;
39370;SDS011;25099;51.946;4.838;2023-05-15T00:12:10;32.30;;;23.52;;
39370;SDS011;25099;51.946;4.838;2023-05-15T00:14:36;31.35;;;24.15;;
39370;SDS011;25099;51.946;4.838;2023-05-15T00:17:01;28.95;;;24.38;;
39370;SDS011;25099;51.946;4.838;2023-05-15T00:19:27;26.13;;;22.63;;
39370;SDS011;25099;51.946;4.838;2023-05-15T00:21:52;29.50;;;25.40;;
39370;SDS011;25099;51.946;4.838;2023-05-15T00:24:20;33.40;;;25.10;;
39370;SDS011;25099;51.946;4.838;2023-05-15T00:26:46;31.45;;;24.88;;
39370;SDS011;25099;51.946;4.838;2023-05-15T00:29:11;33.15;;;24.85;;
39370;SDS011;25099;51.946;4.838;2023-05-15T00:31:37;32.25;;;24.42;;
39370;SDS011;25099;51.946;4.838;2023-05-15T00:34:02;33.10;;;24.85;;
39370;SDS011;25099;51.946;4.838;2023-05-15T00:36:28;31.75;;;24.42;;
39370;SDS011;25099;51.946;4.838;2023-05-15T00:38:53;30.90;;;25.08;;
39370;SDS011;25099;51.946;4.838;2023-05-15T00:41:19;33.25;;;25.35;;
39370;SDS011;25099;51.946;4.838;2023-05-15T00:43:47;38.03;;;26.23;;
39370;SDS011;25099;51.946;4.838;2023-05-15T00:46:15;29.08;;;24.17;;
39370;SDS011;25099;51.946;4.838;2023-05-15T00:48:41;28.80;;;24.20;;
39370;SDS011;25099;51.946;4.838;2023-05-15T00:51:08;28.45;;;24.90;;
39370;SDS011;25099;51.946;4.838;2023-05-15T00:53:34;34.58;;;25.23;;
39370;SDS011;25099;51.946;4.838;2023-05-15T00:55:59;31.23;;;24.35;;
39370;SDS011;25099;51.946;4.838;2023-05-15T00:58:29;32.10;;;25.00;;
39370;SDS011;25099;51.946;4.838;2023-05-15T01:00:55;31.23;;;25.35;;
39370;SDS011;25099;51.946;4.838;2023-05-15T01:03:21;27.50;;;24.15;;
39370;SDS011;25099;51.946;4.838;2023-05-15T01:05:47;29.83;;;24.25;;
39370;SDS011;25099;51.946;4.838;2023-05-15T01:10:47;23.70;;;21.17;;
39370;SDS011;25099;51.946;4.838;2023-05-15T01:13:14;24.67;;;19.80;;
39370;SDS011;25099;51.946;4.838;2023-05-15T01:15:40;20.75;;;18.58;;
39370;SDS011;25099;51.946;4.838;2023-05-15T01:18:06;20.42;;;18.23;;
39370;SDS011;25099;51.946;4.838;2023-05-15T01:20:38;23.00;;;17.73;;
39370;SDS011;25099;51.946;4.838;2023-05-15T01:26:27;18.27;;;16.10;;
39370;SDS011;25099;51.946;4.838;2023-05-15T01:28:58;19.75;;;15.98;;
39370;SDS011;25099;51.946;4.838;2023-05-15T01:31:30;21.15;;;16.30;;
39370;SDS011;25099;51.946;4.838;2023-05-15T01:33:58;17.02;;;15.38;;
39370;SDS011;25099;51.946;4.838;2023-05-15T01:36:34;21.67;;;15.98;;
39370;SDS011;25099;51.946;4.838;2023-05-15T01:39:02;16.30;;;14.68;;
39370;SDS011;25099;51.946;4.838;2023-05-15T01:41:40;23.27;;;14.70;;
39370;SDS011;25099;51.946;4.838;2023-05-15T01:46:44;17.70;;;15.48;;
39370;SDS011;25099;51.946;4.838;2023-05-15T01:49:15;18.67;;;15.48;;
39370;SDS011;25099;51.946;4.838;2023-05-15T01:51:43;18.65;;;14.45;;
39370;SDS011;25099;51.946;4.838;2023-05-15T01:54:12;20.38;;;16.08;;
39370;SDS011;25099;51.946;4.838;2023-05-15T01:56:39;18.38;;;15.73;;
39370;SDS011;25099;51.946;4.838;2023-05-15T01:59:09;18.05;;;15.55;;
39370;SDS011;25099;51.946;4.838;2023-05-15T02:01:39;22.08;;;16.15;;
39370;SDS011;25099;51.946;4.838;2023-05-15T02:04:05;16.77;;;15.05;;
39370;SDS011;25099;51.946;4.838;2023-05-15T02:06:32;15.73;;;14.23;;
39370;SDS011;25099;51.946;4.838;2023-05-15T02:09:01;18.23;;;15.75;;
39370;SDS011;25099;51.946;4.838;2023-05-15T02:11:27;17.75;;;15.95;;
39370;SDS011;25099;51.946;4.838;2023-05-15T02:13:53;17.55;;;15.60;;
39370;SDS011;25099;51.946;4.838;2023-05-15T02:16:21;17.83;;;16.15;;
39370;SDS011;25099;51.946;4.838;2023-05-15T02:18:47;20.40;;;16.80;;
39370;SDS011;25099;51.946;4.838;2023-05-15T02:21:13;22.50;;;16.55;;
39370;SDS011;25099;51.946;4.838;2023-05-15T02:23:39;18.73;;;16.77;;
39370;SDS011;25099;51.946;4.838;2023-05-15T02:26:07;21.63;;;16.90;;
39370;SDS011;25099;51.946;4.838;2023-05-15T02:28:58;18.15;;;16.27;;
39370;SDS011;25099;51.946;4.838;2023-05-15T02:31:54;18.75;;;16.75;;
39370;SDS011;25099;51.946;4.838;2023-05-15T02:34:38;22.20;;;18.30;;
39370;SDS011;25099;51.946;4.838;2023-05-15T02:37:30;19.60;;;17.63;;
39370;SDS011;25099;51.946;4.838;2023-05-15T02:39:58;20.30;;;18.02;;
39370;SDS011;25099;51.946;4.838;2023-05-15T02:42:25;20.55;;;18.40;;
39370;SDS011;25099;51.946;4.838;2023-05-15T02:44:52;21.48;;;18.60;;
39370;SDS011;25099;51.946;4.838;2023-05-15T02:47:19;20.75;;;17.98;;
39370;SDS011;25099;51.946;4.838;2023-05-15T02:49:47;22.88;;;18.92;;
39370;SDS011;25099;51.946;4.838;2023-05-15T02:52:12;20.83;;;18.83;;
39370;SDS011;25099;51.946;4.838;2023-05-15T02:54:38;22.05;;;19.13;;
39370;SDS011;25099;51.946;4.838;2023-05-15T02:57:04;21.30;;;18.95;;
39370;SDS011;25099;51.946;4.838;2023-05-15T02:59:32;26.00;;;20.55;;
39370;SDS011;25099;51.946;4.838;2023-05-15T03:01:57;22.02;;;19.67;;
39370;SDS011;25099;51.946;4.838;2023-05-15T03:04:23;26.17;;;19.85;;
39370;SDS011;25099;51.946;4.838;2023-05-15T03:06:49;24.85;;;20.45;;
39370;SDS011;25099;51.946;4.838;2023-05-15T03:09:14;23.70;;;20.90;;
39370;SDS011;25099;51.946;4.838;2023-05-15T03:11:40;22.67;;;20.35;;
39370;SDS011;25099;51.946;4.838;2023-05-15T03:14:06;25.23;;;20.75;;
39370;SDS011;25099;51.946;4.838;2023-05-15T03:16:31;26.67;;;22.15;;
39370;SDS011;25099;51.946;4.838;2023-05-15T03:18:57;26.45;;;23.60;;
39370;SDS011;25099;51.946;4.838;2023-05-15T03:21:23;25.85;;;21.75;;
39370;SDS011;25099;51.946;4.838;2023-05-15T03:23:48;25.88;;;22.30;;
39370;SDS011;25099;51.946;4.838;2023-05-15T03:26:14;23.95;;;21.00;;
39370;SDS011;25099;51.946;4.838;2023-05-15T03:28:39;26.58;;;22.27;;
39370;SDS011;25099;51.946;4.838;2023-05-15T03:31:05;25.85;;;23.08;;
39370;SDS011;25099;51.946;4.838;2023-05-15T03:33:33;34.33;;;23.42;;
39370;SDS011;25099;51.946;4.838;2023-05-15T03:35:58;27.67;;;23.98;;
39370;SDS011;25099;51.946;4.838;2023-05-15T03:38:24;33.85;;;26.40;;
39370;SDS011;25099;51.946;4.838;2023-05-15T03:40:49;32.22;;;25.50;;
39370;SDS011;25099;51.946;4.838;2023-05-15T03:43:15;33.63;;;25.77;;
39370;SDS011;25099;51.946;4.838;2023-05-15T03:45:41;33.67;;;26.75;;
39370;SDS011;25099;51.946;4.838;2023-05-15T03:48:06;32.22;;;26.10;;
39370;SDS011;25099;51.946;4.838;2023-05-15T03:50:32;31.00;;;26.83;;
39370;SDS011;25099;51.946;4.838;2023-05-15T03:52:57;34.53;;;28.63;;
39370;SDS011;25099;51.946;4.838;2023-05-15T03:55:23;31.98;;;27.45;;
39370;SDS011;25099;51.946;4.838;2023-05-15T03:57:48;35.50;;;28.48;;
39370;SDS011;25099;51.946;4.838;2023-05-15T04:00:14;38.17;;;30.10;;
39370;SDS011;25099;51.946;4.838;2023-05-15T04:02:40;36.58;;;30.50;;
39370;SDS011;25099;51.946;4.838;2023-05-15T04:05:06;35.35;;;29.23;;
39370;SDS011;25099;51.946;4.838;2023-05-15T04:07:32;36.70;;;30.40;;
39370;SDS011;25099;51.946;4.838;2023-05-15T04:09:59;35.75;;;29.15;;
39370;SDS011;25099;51.946;4.838;2023-05-15T04:12:28;37.15;;;30.52;;
39370;SDS011;25099;51.946;4.838;2023-05-15T04:17:45;35.53;;;29.05;;
39370;SDS011;25099;51.946;4.838;2023-05-15T04:20:13;37.22;;;29.40;;
39370;SDS011;25099;51.946;4.838;2023-05-15T04:22:39;38.72;;;27.63;;
39370;SDS011;25099;51.946;4.838;2023-05-15T04:25:06;39.33;;;28.95;;
39370;SDS011;25099;51.946;4.838;2023-05-15T04:27:33;40.65;;;27.52;;
39370;SDS011;25099;51.946;4.838;2023-05-15T04:29:59;37.70;;;28.08;;
39370;SDS011;25099;51.946;4.838;2023-05-15T04:32:25;32.63;;;27.98;;
39370;SDS011;25099;51.946;4.838;2023-05-15T04:34:51;36.53;;;29.48;;
39370;SDS011;25099;51.946;4.838;2023-05-15T04:37:17;34.70;;;27.50;;
39370;SDS011;25099;51.946;4.838;2023-05-15T04:39:43;33.13;;;27.40;;
39370;SDS011;25099;51.946;4.838;2023-05-15T04:42:08;34.42;;;26.63;;
39370;SDS011;25099;51.946;4.838;2023-05-15T04:44:34;33.42;;;27.55;;
39370;SDS011;25099;51.946;4.838;2023-05-15T04:47:00;31.60;;;27.77;;
39370;SDS011;25099;51.946;4.838;2023-05-15T04:49:25;32.55;;;25.98;;
39370;SDS011;25099;51.946;4.838;2023-05-15T04:51:51;32.08;;;28.08;;
39370;SDS011;25099;51.946;4.838;2023-05-15T04:54:16;31.35;;;27.65;;
39370;SDS011;25099;51.946;4.838;2023-05-15T04:56:42;37.05;;;26.55;;
39370;SDS011;25099;51.946;4.838;2023-05-15T04:59:09;32.97;;;26.77;;
39370;SDS011;25099;51.946;4.838;2023-05-15T05:01:34;29.25;;;25.02;;
39370;SDS011;25099;51.946;4.838;2023-05-15T05:04:01;29.45;;;23.75;;
39370;SDS011;25099;51.946;4.838;2023-05-15T05:06:26;29.13;;;25.25;;
39370;SDS011;25099;51.946;4.838;2023-05-15T05:08:52;33.42;;;26.48;;
39370;SDS011;25099;51.946;4.838;2023-05-15T05:11:17;34.10;;;26.05;;
39370;SDS011;25099;51.946;4.838;2023-05-15T05:13:43;33.78;;;25.45;;
39370;SDS011;25099;51.946;4.838;2023-05-15T05:16:09;29.00;;;25.58;;
39370;SDS011;25099;51.946;4.838;2023-05-15T05:18:34;30.73;;;24.73;;
39370;SDS011;25099;51.946;4.838;2023-05-15T05:21:00;25.63;;;22.85;;
39370;SDS011;25099;51.946;4.838;2023-05-15T05:23:26;28.40;;;24.70;;
39370;SDS011;25099;51.946;4.838;2023-05-15T05:25:52;24.67;;;20.95;;
39370;SDS011;25099;51.946;4.838;2023-05-15T05:28:17;22.17;;;19.85;;
39370;SDS011;25099;51.946;4.838;2023-05-15T05:30:46;21.60;;;18.80;;
39370;SDS011;25099;51.946;4.838;2023-05-15T05:33:12;24.20;;;19.63;;
39370;SDS011;25099;51.946;4.838;2023-05-15T05:35:38;23.77;;;20.33;;
39370;SDS011;25099;51.946;4.838;2023-05-15T05:38:04;29.00;;;23.67;;
39370;SDS011;25099;51.946;4.838;2023-05-15T05:40:29;27.27;;;24.38;;
39370;SDS011;25099;51.946;4.838;2023-05-15T05:42:59;28.20;;;24.65;;
39370;SDS011;25099;51.946;4.838;2023-05-15T05:45:25;26.88;;;22.88;;
39370;SDS011;25099;51.946;4.838;2023-05-15T05:47:50;27.17;;;22.83;;
39370;SDS011;25099;51.946;4.838;2023-05-15T05:50:16;27.77;;;23.77;;
39370;SDS011;25099;51.946;4.838;2023-05-15T05:52:42;30.00;;;24.27;;
39370;SDS011;25099;51.946;4.838;2023-05-15T05:55:07;25.35;;;22.63;;
39370;SDS011;25099;51.946;4.838;2023-05-15T05:57:33;26.52;;;23.67;;
39370;SDS011;25099;51.946;4.838;2023-05-15T05:59:59;37.00;;;23.40;;
39370;SDS011;25099;51.946;4.838;2023-05-15T06:02:25;29.67;;;23.75;;
39370;SDS011;25099;51.946;4.838;2023-05-15T06:04:50;26.60;;;23.27;;
39370;SDS011;25099;51.946;4.838;2023-05-15T06:07:16;31.63;;;25.35;;
39370;SDS011;25099;51.946;4.838;2023-05-15T06:09:42;27.42;;;23.80;;
39370;SDS011;25099;51.946;4.838;2023-05-15T06:12:09;28.17;;;23.98;;
39370;SDS011;25099;51.946;4.838;2023-05-15T06:14:35;25.10;;;22.48;;
39370;SDS011;25099;51.946;4.838;2023-05-15T06:17:01;26.88;;;23.98;;
39370;SDS011;25099;51.946;4.838;2023-05-15T06:19:26;25.88;;;22.88;;
39370;SDS011;25099;51.946;4.838;2023-05-15T06:21:52;27.00;;;22.20;;
39370;SDS011;25099;51.946;4.838;2023-05-15T06:24:18;34.70;;;25.45;;
39370;SDS011;25099;51.946;4.838;2023-05-15T06:26:43;27.58;;;24.38;;
39370;SDS011;25099;51.946;4.838;2023-05-15T06:29:09;27.85;;;23.38;;
39370;SDS011;25099;51.946;4.838;2023-05-15T06:31:35;24.98;;;22.15;;
39370;SDS011;25099;51.946;4.838;2023-05-15T06:34:00;27.45;;;21.30;;
39370;SDS011;25099;51.946;4.838;2023-05-15T06:36:26;27.90;;;22.48;;
39370;SDS011;25099;51.946;4.838;2023-05-15T06:38:52;29.55;;;21.70;;
39370;SDS011;25099;51.946;4.838;2023-05-15T06:41:18;29.30;;;22.10;;
39370;SDS011;25099;51.946;4.838;2023-05-15T06:43:43;28.50;;;22.45;;
39370;SDS011;25099;51.946;4.838;2023-05-15T06:46:09;25.13;;;21.73;;
39370;SDS011;25099;51.946;4.838;2023-05-15T06:48:34;25.63;;;21.08;;
39370;SDS011;25099;51.946;4.838;2023-05-15T06:51:00;25.13;;;22.42;;
39370;SDS011;25099;51.946;4.838;2023-05-15T06:53:25;28.25;;;22.23;;
39370;SDS011;25099;51.946;4.838;2023-05-15T06:55:53;25.33;;;20.70;;
39370;SDS011;25099;51.946;4.838;2023-05-15T06:58:19;25.98;;;20.67;;
39370;SDS011;25099;51.946;4.838;2023-05-15T07:00:44;24.95;;;20.65;;
39370;SDS011;25099;51.946;4.838;2023-05-15T07:03:10;26.40;;;20.42;;
39370;SDS011;25099;51.946;4.838;2023-05-15T07:05:38;21.90;;;18.90;;
39370;SDS011;25099;51.946;4.838;2023-05-15T07:08:03;26.20;;;19.17;;
39370;SDS011;25099;51.946;4.838;2023-05-15T07:10:29;20.73;;;17.42;;
39370;SDS011;25099;51.946;4.838;2023-05-15T07:12:54;23.55;;;18.95;;
39370;SDS011;25099;51.946;4.838;2023-05-15T07:15:20;21.92;;;19.08;;
39370;SDS011;25099;51.946;4.838;2023-05-15T07:17:46;24.38;;;19.20;;
39370;SDS011;25099;51.946;4.838;2023-05-15T07:20:11;24.05;;;20.63;;
39370;SDS011;25099;51.946;4.838;2023-05-15T07:22:37;26.05;;;20.17;;
39370;SDS011;25099;51.946;4.838;2023-05-15T07:25:03;24.05;;;20.20;;
39370;SDS011;25099;51.946;4.838;2023-05-15T07:27:29;26.75;;;22.65;;
39370;SDS011;25099;51.946;4.838;2023-05-15T07:29:54;25.55;;;20.58;;
39370;SDS011;25099;51.946;4.838;2023-05-15T07:32:20;27.48;;;22.42;;
39370;SDS011;25099;51.946;4.838;2023-05-15T07:34:45;23.92;;;21.40;;
39370;SDS011;25099;51.946;4.838;2023-05-15T07:37:11;23.63;;;20.75;;
39370;SDS011;25099;51.946;4.838;2023-05-15T07:39:36;28.92;;;22.70;;
39370;SDS011;25099;51.946;4.838;2023-05-15T07:42:02;26.15;;;20.90;;
39370;SDS011;25099;51.946;4.838;2023-05-15T07:44:28;29.85;;;23.23;;
39370;SDS011;25099;51.946;4.838;2023-05-15T07:46:53;27.27;;;23.58;;
39370;SDS011;25099;51.946;4.838;2023-05-15T07:49:20;27.63;;;22.50;;
39370;SDS011;25099;51.946;4.838;2023-05-15T07:51:46;26.23;;;23.42;;
39370;SDS011;25099;51.946;4.838;2023-05-15T07:54:11;29.35;;;23.15;;
39370;SDS011;25099;51.946;4.838;2023-05-15T07:56:37;28.48;;;25.15;;
39370;SDS011;25099;51.946;4.838;2023-05-15T07:59:03;29.90;;;24.30;;
39370;SDS011;25099;51.946;4.838;2023-05-15T08:01:28;29.83;;;23.92;;
39370;SDS011;25099;51.946;4.838;2023-05-15T08:03:54;30.75;;;23.98;;
39370;SDS011;25099;51.946;4.838;2023-05-15T08:06:19;30.05;;;24.00;;
39370;SDS011;25099;51.946;4.838;2023-05-15T08:08:45;27.23;;;23.10;;
39370;SDS011;25099;51.946;4.838;2023-05-15T08:11:10;30.23;;;24.98;;
39370;SDS011;25099;51.946;4.838;2023-05-15T08:13:36;33.30;;;25.00;;
39370;SDS011;25099;51.946;4.838;2023-05-15T08:16:02;27.17;;;23.33;;
39370;SDS011;25099;51.946;4.838;2023-05-15T08:18:27;31.45;;;25.73;;
39370;SDS011;25099;51.946;4.838;2023-05-15T08:20:53;29.02;;;23.90;;
39370;SDS011;25099;51.946;4.838;2023-05-15T08:23:18;29.90;;;24.40;;
39370;SDS011;25099;51.946;4.838;2023-05-15T08:25:44;32.15;;;25.63;;
39370;SDS011;25099;51.946;4.838;2023-05-15T08:28:10;29.88;;;22.45;;
39370;SDS011;25099;51.946;4.838;2023-05-15T08:30:35;29.20;;;24.50;;
39370;SDS011;25099;51.946;4.838;2023-05-15T08:33:01;31.10;;;23.75;;
39370;SDS011;25099;51.946;4.838;2023-05-15T08:35:26;29.15;;;25.85;;
39370;SDS011;25099;51.946;4.838;2023-05-15T08:37:52;28.70;;;24.45;;
39370;SDS011;25099;51.946;4.838;2023-05-15T08:40:18;27.25;;;24.48;;
39370;SDS011;25099;51.946;4.838;2023-05-15T08:42:44;30.60;;;24.77;;
39370;SDS011;25099;51.946;4.838;2023-05-15T08:45:17;29.73;;;25.23;;
39370;SDS011;25099;51.946;4.838;2023-05-15T08:47:44;29.63;;;24.58;;
39370;SDS011;25099;51.946;4.838;2023-05-15T08:50:10;29.50;;;25.73;;
39370;SDS011;25099;51.946;4.838;2023-05-15T08:52:39;35.50;;;27.50;;
39370;SDS011;25099;51.946;4.838;2023-05-15T08:55:10;31.20;;;27.63;;
39370;SDS011;25099;51.946;4.838;2023-05-15T08:57:37;34.22;;;26.90;;
39370;SDS011;25099;51.946;4.838;2023-05-15T09:00:03;33.97;;;27.63;;
39370;SDS011;25099;51.946;4.838;2023-05-15T09:02:32;36.37;;;26.53;;
39370;SDS011;25099;51.946;4.838;2023-05-15T09:05:05;29.13;;;24.42;;
39370;SDS011;25099;51.946;4.838;2023-05-15T09:07:31;30.38;;;25.17;;
39370;SDS011;25099;51.946;4.838;2023-05-15T09:09:57;37.92;;;28.85;;
39370;SDS011;25099;51.946;4.838;2023-05-15T09:12:25;42.22;;;28.48;;
39370;SDS011;25099;51.946;4.838;2023-05-15T09:14:53;41.38;;;29.33;;
39370;SDS011;25099;51.946;4.838;2023-05-15T09:17:41;38.47;;;28.60;;
39370;SDS011;25099;51.946;4.838;2023-05-15T09:20:23;40.88;;;30.83;;
39370;SDS011;25099;51.946;4.838;2023-05-15T09:22:48;41.40;;;30.27;;
39370;SDS011;25099;51.946;4.838;2023-05-15T09:25:14;41.22;;;30.85;;
39370;SDS011;25099;51.946;4.838;2023-05-15T09:27:57;45.60;;;33.25;;
39370;SDS011;25099;51.946;4.838;2023-05-15T09:30:24;42.35;;;33.28;;
39370;SDS011;25099;51.946;4.838;2023-05-15T09:32:50;49.33;;;35.20;;
39370;SDS011;25099;51.946;4.838;2023-05-15T09:35:33;50.72;;;34.22;;
39370;SDS011;25099;51.946;4.838;2023-05-15T09:38:00;47.20;;;35.65;;
39370;SDS011;25099;51.946;4.838;2023-05-15T09:40:27;44.15;;;34.35;;
39370;SDS011;25099;51.946;4.838;2023-05-15T09:42:54;50.50;;;34.13;;
39370;SDS011;25099;51.946;4.838;2023-05-15T09:45:21;46.00;;;34.50;;
39370;SDS011;25099;51.946;4.838;2023-05-15T09:47:49;48.58;;;35.15;;
39370;SDS011;25099;51.946;4.838;2023-05-15T09:50:19;50.33;;;36.08;;
39370;SDS011;25099;51.946;4.838;2023-05-15T09:52:49;51.92;;;35.95;;
39370;SDS011;25099;51.946;4.838;2023-05-15T09:55:16;53.42;;;38.08;;
39370;SDS011;25099;51.946;4.838;2023-05-15T09:57:44;52.53;;;37.30;;
39370;SDS011;25099;51.946;4.838;2023-05-15T10:00:28;53.42;;;37.80;;
39370;SDS011;25099;51.946;4.838;2023-05-15T10:02:56;52.47;;;37.03;;
39370;SDS011;25099;51.946;4.838;2023-05-15T10:05:25;57.90;;;40.47;;
39370;SDS011;25099;51.946;4.838;2023-05-15T10:07:52;59.33;;;42.15;;
39370;SDS011;25099;51.946;4.838;2023-05-15T10:10:19;65.93;;;40.65;;
39370;SDS011;25099;51.946;4.838;2023-05-15T10:12:46;66.78;;;44.25;;
39370;SDS011;25099;51.946;4.838;2023-05-15T10:15:12;66.03;;;42.15;;
39370;SDS011;25099;51.946;4.838;2023-05-15T10:17:39;65.20;;;43.90;;
39370;SDS011;25099;51.946;4.838;2023-05-15T10:20:09;72.72;;;44.80;;
39370;SDS011;25099;51.946;4.838;2023-05-15T10:22:39;72.05;;;44.70;;
39370;SDS011;25099;51.946;4.838;2023-05-15T10:25:12;66.88;;;42.88;;
39370;SDS011;25099;51.946;4.838;2023-05-15T10:28:00;64.13;;;41.90;;
39370;SDS011;25099;51.946;4.838;2023-05-15T10:30:27;68.03;;;42.45;;
39370;SDS011;25099;51.946;4.838;2023-05-15T10:32:55;67.20;;;42.17;;
39370;SDS011;25099;51.946;4.838;2023-05-15T10:35:22;61.03;;;40.22;;
39370;SDS011;25099;51.946;4.838;2023-05-15T10:37:47;55.70;;;38.10;;
39370;SDS011;25099;51.946;4.838;2023-05-15T10:40:14;54.65;;;37.72;;
39370;SDS011;25099;51.946;4.838;2023-05-15T10:42:41;58.15;;;39.97;;
39370;SDS011;25099;51.946;4.838;2023-05-15T10:45:09;56.60;;;37.35;;
39370;SDS011;25099;51.946;4.838;2023-05-15T10:47:36;48.75;;;34.08;;
39370;SDS011;25099;51.946;4.838;2023-05-15T10:50:04;46.03;;;32.75;;
39370;SDS011;25099;51.946;4.838;2023-05-15T10:52:34;49.58;;;35.78;;
39370;SDS011;25099;51.946;4.838;2023-05-15T10:55:04;50.53;;;34.40;;
39370;SDS011;25099;51.946;4.838;2023-05-15T10:57:31;48.05;;;35.08;;
39370;SDS011;25099;51.946;4.838;2023-05-15T10:59:56;44.00;;;32.00;;
39370;SDS011;25099;51.946;4.838;2023-05-15T11:02:25;42.58;;;32.33;;
39370;SDS011;25099;51.946;4.838;2023-05-15T11:04:57;39.00;;;28.50;;
39370;SDS011;25099;51.946;4.838;2023-05-15T11:07:24;39.60;;;29.50;;
39370;SDS011;25099;51.946;4.838;2023-05-15T11:09:50;41.50;;;30.25;;
39370;SDS011;25099;51.946;4.838;2023-05-15T11:12:17;40.25;;;30.27;;
39370;SDS011;25099;51.946;4.838;2023-05-15T11:15:16;34.78;;;27.77;;
39370;SDS011;25099;51.946;4.838;2023-05-15T11:17:34;36.15;;;26.83;;
39370;SDS011;25099;51.946;4.838;2023-05-15T11:20:00;41.88;;;30.48;;
39370;SDS011;25099;51.946;4.838;2023-05-15T11:22:30;35.75;;;29.38;;
39370;SDS011;25099;51.946;4.838;2023-05-15T11:24:58;35.80;;;26.40;;
39370;SDS011;25099;51.946;4.838;2023-05-15T11:27:40;33.50;;;24.08;;
39370;SDS011;25099;51.946;4.838;2023-05-15T11:35:20;25.80;;;20.70;;
39370;SDS011;25099;51.946;4.838;2023-05-15T11:40:49;25.40;;;20.58;;
39370;SDS011;25099;51.946;4.838;2023-05-15T11:43:28;25.67;;;19.98;;
39370;SDS011;25099;51.946;4.838;2023-05-15T11:46:06;28.80;;;20.95;;
39370;SDS011;25099;51.946;4.838;2023-05-15T11:48:40;20.15;;;17.70;;
39370;SDS011;25099;51.946;4.838;2023-05-15T11:51:12;22.23;;;16.40;;
39370;SDS011;25099;51.946;4.838;2023-05-15T11:53:39;19.80;;;15.45;;
39370;SDS011;25099;51.946;4.838;2023-05-15T11:56:05;18.75;;;13.30;;
39370;SDS011;25099;51.946;4.838;2023-05-15T11:58:31;12.93;;;10.73;;
39370;SDS011;25099;51.946;4.838;2023-05-15T12:00:56;10.63;;;9.52;;
39370;SDS011;25099;51.946;4.838;2023-05-15T12:03:23;10.40;;;9.40;;
39370;SDS011;25099;51.946;4.838;2023-05-15T12:05:56;10.23;;;8.02;;
39370;SDS011;25099;51.946;4.838;2023-05-15T12:08:22;13.35;;;8.00;;
39370;SDS011;25099;51.946;4.838;2023-05-15T12:10:48;9.38;;;8.00;;
39370;SDS011;25099;51.946;4.838;2023-05-15T12:13:14;8.38;;;7.13;;
39370;SDS011;25099;51.946;4.838;2023-05-15T12:15:43;9.70;;;6.75;;
39370;SDS011;25099;51.946;4.838;2023-05-15T12:18:10;14.18;;;7.53;;
39370;SDS011;25099;51.946;4.838;2023-05-15T12:20:36;16.20;;;8.82;;
39370;SDS011;25099;51.946;4.838;2023-05-15T12:23:04;14.27;;;9.75;;
39370;SDS011;25099;51.946;4.838;2023-05-15T12:25:33;15.80;;;10.82;;
39370;SDS011;25099;51.946;4.838;2023-05-15T12:28:00;22.73;;;12.55;;
39370;SDS011;25099;51.946;4.838;2023-05-15T12:30:27;21.60;;;11.40;;
39370;SDS011;25099;51.946;4.838;2023-05-15T12:32:57;21.60;;;11.55;;
39370;SDS011;25099;51.946;4.838;2023-05-15T12:35:39;14.25;;;9.73;;
39370;SDS011;25099;51.946;4.838;2023-05-15T12:38:07;17.25;;;9.00;;
39370;SDS011;25099;51.946;4.838;2023-05-15T12:40:33;14.85;;;8.63;;
39370;SDS011;25099;51.946;4.838;2023-05-15T12:43:03;15.52;;;9.73;;
39370;SDS011;25099;51.946;4.838;2023-05-15T12:45:32;16.30;;;9.75;;
39370;SDS011;25099;51.946;4.838;2023-05-15T12:48:00;14.77;;;8.77;;
39370;SDS011;25099;51.946;4.838;2023-05-15T12:50:26;9.60;;;7.65;;
39370;SDS011;25099;51.946;4.838;2023-05-15T12:52:57;14.00;;;6.35;;
39370;SDS011;25099;51.946;4.838;2023-05-15T12:55:28;10.18;;;6.45;;
39370;SDS011;25099;51.946;4.838;2023-05-15T12:58:08;10.13;;;5.85;;
39370;SDS011;25099;51.946;4.838;2023-05-15T13:00:39;8.50;;;5.15;;
39370;SDS011;25099;51.946;4.838;2023-05-15T13:03:09;7.60;;;5.15;;
39370;SDS011;25099;51.946;4.838;2023-05-15T13:05:35;13.02;;;5.00;;
39370;SDS011;25099;51.946;4.838;2023-05-15T13:08:03;14.07;;;6.22;;
39370;SDS011;25099;51.946;4.838;2023-05-15T13:10:31;21.33;;;7.03;;
39370;SDS011;25099;51.946;4.838;2023-05-15T13:12:58;18.95;;;7.93;;
39370;SDS011;25099;51.946;4.838;2023-05-15T13:18:16;16.27;;;5.70;;
39370;SDS011;25099;51.946;4.838;2023-05-15T13:20:49;13.93;;;5.38;;
39370;SDS011;25099;51.946;4.838;2023-05-15T13:23:18;12.18;;;4.80;;
39370;SDS011;25099;51.946;4.838;2023-05-15T13:25:45;11.80;;;5.05;;
39370;SDS011;25099;51.946;4.838;2023-05-15T13:28:11;10.05;;;4.53;;
39370;SDS011;25099;51.946;4.838;2023-05-15T13:30:37;15.80;;;5.18;;
39370;SDS011;25099;51.946;4.838;2023-05-15T13:33:05;11.65;;;4.25;;
39370;SDS011;25099;51.946;4.838;2023-05-15T13:35:32;9.10;;;3.80;;
39370;SDS011;25099;51.946;4.838;2023-05-15T13:37:57;12.75;;;4.55;;
39370;SDS011;25099;51.946;4.838;2023-05-15T13:40:23;6.20;;;3.40;;
39370;SDS011;25099;51.946;4.838;2023-05-15T13:42:49;9.68;;;3.80;;
39370;SDS011;25099;51.946;4.838;2023-05-15T13:45:15;9.82;;;4.22;;
39370;SDS011;25099;51.946;4.838;2023-05-15T13:47:41;14.25;;;3.75;;
39370;SDS011;25099;51.946;4.838;2023-05-15T13:50:08;17.85;;;5.25;;
39370;SDS011;25099;51.946;4.838;2023-05-15T13:52:38;12.95;;;3.92;;
39370;SDS011;25099;51.946;4.838;2023-05-15T13:55:04;8.68;;;3.53;;
39370;SDS011;25099;51.946;4.838;2023-05-15T13:57:31;6.68;;;3.47;;
39370;SDS011;25099;51.946;4.838;2023-05-15T13:59:57;8.60;;;3.42;;
39370;SDS011;25099;51.946;4.838;2023-05-15T14:02:23;9.32;;;4.05;;
39370;SDS011;25099;51.946;4.838;2023-05-15T14:04:52;11.52;;;4.03;;
39370;SDS011;25099;51.946;4.838;2023-05-15T14:07:20;9.30;;;3.40;;
39370;SDS011;25099;51.946;4.838;2023-05-15T14:09:47;10.38;;;3.45;;
39370;SDS011;25099;51.946;4.838;2023-05-15T14:12:12;12.30;;;3.83;;
39370;SDS011;25099;51.946;4.838;2023-05-15T14:14:38;10.95;;;3.58;;
39370;SDS011;25099;51.946;4.838;2023-05-15T14:17:03;14.20;;;3.75;;
39370;SDS011;25099;51.946;4.838;2023-05-15T14:19:29;6.93;;;3.50;;
39370;SDS011;25099;51.946;4.838;2023-05-15T14:21:55;9.68;;;3.90;;
39370;SDS011;25099;51.946;4.838;2023-05-15T14:24:20;8.57;;;3.22;;
39370;SDS011;25099;51.946;4.838;2023-05-15T14:26:46;8.93;;;3.20;;
39370;SDS011;25099;51.946;4.838;2023-05-15T14:29:11;5.20;;;2.50;;
39370;SDS011;25099;51.946;4.838;2023-05-15T14:31:37;4.38;;;2.60;;
39370;SDS011;25099;51.946;4.838;2023-05-15T14:34:02;5.82;;;3.25;;
39370;SDS011;25099;51.946;4.838;2023-05-15T14:36:29;5.80;;;3.28;;
39370;SDS011;25099;51.946;4.838;2023-05-15T14:38:55;4.75;;;2.88;;
39370;SDS011;25099;51.946;4.838;2023-05-15T14:41:21;4.70;;;2.95;;
39370;SDS011;25099;51.946;4.838;2023-05-15T14:43:46;4.35;;;2.63;;
39370;SDS011;25099;51.946;4.838;2023-05-15T14:46:12;4.22;;;2.08;;
39370;SDS011;25099;51.946;4.838;2023-05-15T14:48:37;6.72;;;2.45;;